Time;durP1;ratioP1;P1;durP2;ratioP2;P2;SDS_P1;SDS_P2;PMS_P1;PMS_P2;Temp;Humidity;BMP_temperature;BMP_pressure;BME280_temperature;BME280_humidity;BME280_pressure;Samples;Min_cycle;Max_cycle;Signal;HPM_P1;HPM_P2
2023/06/18 00:00:07;;;;;;;23.70;9.93;;;;;;;-144.47;90.28;52663.44;4989812;28;20041;-67
2023/06/18 00:02:32;;;;;;;27.38;10.23;;;;;;;-144.47;90.43;52661.44;4990189;28;20026;-67
2023/06/18 00:04:57;;;;;;;19.60;10.27;;;;;;;-144.47;90.72;52653.50;4989730;28;20111;-67
2023/06/18 00:07:23;;;;;;;15.32;9.43;;;;;;;-144.47;91.29;52657.47;4989992;28;20066;-65
2023/06/18 00:09:49;;;;;;;16.42;10.45;;;;;;;-144.47;91.91;52671.38;4989901;28;20180;-66
2023/06/18 00:12:14;;;;;;;17.05;10.25;;;;;;;-144.47;92.73;52647.56;4990117;28;20026;-67
2023/06/18 00:14:40;;;;;;;16.88;9.80;;;;;;;-144.47;92.77;52643.56;4988359;28;20022;-63
2023/06/18 00:17:05;;;;;;;13.63;9.13;;;;;;;-144.47;94.28;52673.38;4989871;28;20056;-68
2023/06/18 00:19:31;;;;;;;17.92;10.27;;;;;;;-144.47;94.96;52659.47;4989708;28;20094;-61
2023/06/18 00:21:56;;;;;;;17.23;10.13;;;;;;;-144.47;95.67;52651.53;4990517;28;20077;-64
2023/06/18 00:24:22;;;;;;;14.93;9.63;;;;;;;-144.47;96.72;52651.53;4989708;28;20028;-69
2023/06/18 00:26:47;;;;;;;15.63;9.32;;;;;;;-144.47;97.00;52641.59;4990340;28;20217;-66
2023/06/18 00:29:13;;;;;;;17.02;9.10;;;;;;;-144.47;97.63;52665.44;4989866;28;20029;-62
2023/06/18 00:31:38;;;;;;;15.23;9.93;;;;;;;-144.47;98.29;52663.44;4977387;28;20030;-66
2023/06/18 00:34:06;;;;;;;27.55;11.82;;;;;;;-144.47;98.71;52663.44;4989672;28;20102;-65
2023/06/18 00:36:33;;;;;;;16.88;9.15;;;;;;;-144.47;99.78;52657.47;4990166;28;20054;-65
2023/06/18 00:39:02;;;;;;;18.65;10.15;;;;;;;-144.47;99.50;52691.25;4989854;28;20416;-66
2023/06/18 00:41:29;;;;;;;24.02;11.07;;;;;;;-144.47;100.00;52655.50;4977306;28;20029;-66
2023/06/18 00:43:57;;;;;;;24.52;15.40;;;;;;;-144.47;100.00;52687.28;4989001;28;20092;-67
2023/06/18 00:46:24;;;;;;;36.78;19.70;;;;;;;-144.47;100.00;52667.41;4989466;28;20514;-65
2023/06/18 00:48:50;;;;;;;28.27;13.05;;;;;;;-144.47;100.00;52657.47;4989333;28;20199;-65
2023/06/18 00:51:16;;;;;;;27.48;15.27;;;;;;;-144.47;100.00;52661.44;5004240;28;20033;-65
2023/06/18 00:53:42;;;;;;;35.45;19.42;;;;;;;-144.47;99.80;52621.72;4984826;28;20042;-62
2023/06/18 00:56:09;;;;;;;37.00;23.70;;;;;;;-144.47;99.79;52665.44;4989860;28;20440;-66
2023/06/18 00:58:35;;;;;;;40.38;25.17;;;;;;;-144.47;99.62;52673.38;4989485;28;20057;-63
2023/06/18 01:01:02;;;;;;;41.15;25.30;;;;;;;-144.47;99.66;52669.41;4989390;28;20377;-65
2023/06/18 01:03:28;;;;;;;39.30;22.80;;;;;;;-144.47;99.66;52617.75;4989529;28;20026;-66
2023/06/18 01:05:57;;;;;;;33.85;19.90;;;;;;;-144.47;100.00;52663.44;4989168;28;20030;-65
2023/06/18 01:08:23;;;;;;;30.60;18.35;;;;;;;-144.47;100.00;52703.16;4987952;28;20022;-66
2023/06/18 01:11:01;;;;;;;26.27;17.25;;;;;;;-144.47;100.00;52649.53;4989400;28;20022;-65
2023/06/18 01:13:30;;;;;;;28.40;17.77;;;;;;;-144.47;100.00;52693.22;4988170;28;20093;-65
2023/06/18 01:16:06;;;;;;;;;;;;;;;-144.47;99.83;52677.34;4990113;28;20030;-61
2023/06/18 01:18:35;;;;;;;31.98;17.52;;;;;;;-144.47;100.00;52649.53;4990041;28;19964;-65
2023/06/18 01:21:11;;;;;;;30.83;15.65;;;;;;;-144.47;100.00;52665.44;4990271;28;20026;-66
2023/06/18 01:23:50;;;;;;;25.95;15.05;;;;;;;-144.47;100.00;52657.47;4990383;28;20053;-64
2023/06/18 01:26:21;;;;;;;;;;;;;;;-144.47;100.00;52661.44;4993454;28;20026;-65
2023/06/18 01:28:53;;;;;;;27.70;13.57;;;;;;;-144.47;100.00;52659.47;4993332;28;19940;-66
2023/06/18 01:31:22;;;;;;;24.60;13.80;;;;;;;-144.47;100.00;52661.44;4992943;28;20034;-66
2023/06/18 01:33:51;;;;;;;21.88;13.18;;;;;;;-144.47;100.00;52665.44;4993016;28;20450;-66
2023/06/18 01:36:29;;;;;;;19.10;12.93;;;;;;;-144.47;100.00;52657.47;4992999;28;20105;-66
2023/06/18 01:39:03;;;;;;;22.95;13.18;;;;;;;-144.47;100.00;52671.38;4993405;28;20054;-63
2023/06/18 01:41:32;;;;;;;30.73;13.35;;;;;;;-144.47;100.00;52691.25;5008316;28;20118;-66
2023/06/18 01:44:00;;;;;;;;;;;;;;;-144.47;100.00;52669.41;4992772;28;20073;-67
2023/06/18 01:46:28;;;;;;;21.13;11.63;;;;;;;-144.47;100.00;52673.38;4991446;28;19951;-67
2023/06/18 01:49:04;;;;;;;19.25;11.05;;;;;;;-144.47;100.00;52681.31;5007394;28;20189;-66
2023/06/18 01:51:31;;;;;;;24.45;11.75;;;;;;;-144.47;100.00;52679.31;4992397;28;20036;-66
2023/06/18 01:53:59;;;;;;;18.73;11.02;;;;;;;-144.47;100.00;52665.44;4994518;28;20391;-66
2023/06/18 01:56:28;;;;;;;18.90;11.27;;;;;;;-144.47;100.00;52657.47;4992249;28;20022;-66
2023/06/18 01:58:54;;;;;;;17.50;11.43;;;;;;;-144.47;100.00;52655.50;4992257;28;20034;-67
2023/06/18 02:01:20;;;;;;;21.60;10.95;;;;;;;-144.47;100.00;52661.44;4992582;28;20030;-64
2023/06/18 02:03:46;;;;;;;17.60;11.18;;;;;;;-144.47;100.00;52657.47;4991993;28;20038;-65
2023/06/18 02:06:12;;;;;;;21.17;12.55;;;;;;;-144.47;100.00;52703.16;4992017;28;20028;-65
2023/06/18 02:08:37;;;;;;;23.25;13.40;;;;;;;-144.47;100.00;52673.38;4992082;28;20061;-65
2023/06/18 02:11:02;;;;;;;21.75;12.65;;;;;;;-144.47;100.00;52663.44;4992495;28;20058;-67
2023/06/18 02:13:28;;;;;;;26.90;13.27;;;;;;;-144.47;100.00;52673.38;4991868;28;20496;-65
2023/06/18 02:15:53;;;;;;;25.73;12.48;;;;;;;-144.47;100.00;52679.31;4992006;28;20023;-64
2023/06/18 02:18:19;;;;;;;20.65;11.60;;;;;;;-144.47;100.00;52661.44;4991858;28;20042;-65
2023/06/18 02:20:45;;;;;;;17.60;11.80;;;;;;;-144.47;100.00;52655.50;4991846;28;20034;-64
2023/06/18 02:23:11;;;;;;;34.50;11.82;;;;;;;-144.47;100.00;52667.41;4991978;28;20105;-66
2023/06/18 02:25:36;;;;;;;17.55;12.00;;;;;;;-144.47;100.00;52669.41;4992258;28;20559;-63
2023/06/18 02:28:04;;;;;;;16.88;11.00;;;;;;;-144.47;100.00;52661.44;4991588;28;20030;-65
2023/06/18 02:30:29;;;;;;;19.02;10.70;;;;;;;-144.47;100.00;52689.25;4991491;28;20057;-64
2023/06/18 02:32:58;;;;;;;18.17;11.85;;;;;;;-144.47;100.00;52645.56;4991627;28;20448;-64
2023/06/18 02:35:28;;;;;;;25.17;11.57;;;;;;;-144.47;100.00;52681.31;4990933;28;20484;-65
2023/06/18 02:37:54;;;;;;;20.50;11.82;;;;;;;-144.47;100.00;52661.44;4991622;28;20436;-65
2023/06/18 02:40:20;;;;;;;17.85;11.85;;;;;;;-144.47;100.00;52665.44;4991331;28;20037;-66
2023/06/18 02:42:48;;;;;;;18.05;11.30;;;;;;;-144.47;100.00;52687.28;4991498;28;20019;-65
2023/06/18 02:45:19;;;;;;;17.92;10.93;;;;;;;-144.47;100.00;52659.47;4991448;28;20025;-66
2023/06/18 02:47:48;;;;;;;24.10;10.95;;;;;;;-144.47;100.00;52689.25;4991655;28;20137;-65
2023/06/18 02:50:15;;;;;;;18.58;10.40;;;;;;;-144.47;100.00;52645.56;4990891;28;20493;-65
2023/06/18 02:52:42;;;;;;;25.05;11.88;;;;;;;-144.47;100.00;52665.44;4986815;28;20513;-63
2023/06/18 02:55:09;;;;;;;19.30;11.02;;;;;;;-144.47;100.00;52665.44;4990685;28;20021;-66
2023/06/18 02:57:35;;;;;;;19.30;12.23;;;;;;;-144.47;100.00;52697.19;4991527;28;20334;-66
2023/06/18 03:00:04;;;;;;;19.02;12.63;;;;;;;-144.47;100.00;52669.41;4991079;28;20139;-64
2023/06/18 03:02:30;;;;;;;23.40;14.30;;;;;;;-144.47;100.00;52685.28;4991131;28;20088;-66
2023/06/18 03:04:55;;;;;;;21.15;12.90;;;;;;;-144.47;100.00;52685.28;4989608;28;20121;-65
2023/06/18 03:07:21;;;;;;;25.55;12.95;;;;;;;-144.47;100.00;52679.31;4990868;28;20026;-65
2023/06/18 03:09:49;;;;;;;23.90;12.82;;;;;;;-144.47;100.00;52687.28;4991147;28;20026;-66
2023/06/18 03:12:15;;;;;;;23.23;12.80;;;;;;;-144.47;100.00;52701.19;4991175;28;20022;-66
2023/06/18 03:14:40;;;;;;;24.20;14.02;;;;;;;-144.47;100.00;52715.06;5005796;28;20096;-66
2023/06/18 03:17:06;;;;;;;25.35;15.02;;;;;;;-144.47;100.00;52681.31;4990757;28;20018;-67
2023/06/18 03:19:31;;;;;;;21.70;14.02;;;;;;;-144.47;100.00;52677.34;4991053;28;20026;-64
2023/06/18 03:21:56;;;;;;;29.40;17.13;;;;;;;-144.47;100.00;52685.28;4990717;28;20025;-66
2023/06/18 03:24:22;;;;;;;30.27;16.38;;;;;;;-144.47;100.00;52693.22;4991432;28;20394;-67
2023/06/18 03:26:48;;;;;;;21.58;13.57;;;;;;;-144.47;100.00;52659.47;4991353;28;20023;-66
2023/06/18 03:29:14;;;;;;;22.60;12.65;;;;;;;-144.47;100.00;52679.31;4991197;28;20022;-68
2023/06/18 03:31:39;;;;;;;21.92;11.85;;;;;;;-144.47;100.00;52673.38;4990719;28;20026;-66
2023/06/18 03:34:06;;;;;;;18.27;12.57;;;;;;;-144.47;100.00;52651.53;5005390;28;20022;-67
2023/06/18 03:36:39;;;;;;;17.13;11.57;;;;;;;-144.47;100.00;52703.16;4990226;28;20022;-66
2023/06/18 03:39:09;;;;;;;18.80;13.25;;;;;;;-144.47;100.00;52681.31;4990333;28;20030;-65
2023/06/18 03:41:35;;;;;;;20.48;13.23;;;;;;;-144.47;100.00;52679.31;5005703;28;20033;-65
2023/06/18 03:44:02;;;;;;;22.42;13.85;;;;;;;-144.47;100.00;52703.16;4990520;28;20034;-64
2023/06/18 03:46:28;;;;;;;21.65;13.82;;;;;;;-144.47;100.00;52683.31;4990292;28;20123;-66
2023/06/18 03:48:55;;;;;;;23.05;14.18;;;;;;;-144.47;100.00;52683.31;4990133;28;20495;-67
2023/06/18 03:51:20;;;;;;;22.23;13.90;;;;;;;-144.47;100.00;52689.25;4989900;28;20022;-65
2023/06/18 03:53:45;;;;;;;23.35;13.77;;;;;;;-144.47;100.00;52661.44;4989512;28;20514;-66
2023/06/18 03:56:11;;;;;;;20.48;12.90;;;;;;;-144.47;100.00;52683.31;4990295;28;20070;-66
2023/06/18 03:58:36;;;;;;;25.95;14.57;;;;;;;-144.47;100.00;52673.38;4990098;28;20396;-66
2023/06/18 04:01:02;;;;;;;20.90;13.65;;;;;;;-144.47;100.00;52695.22;4990009;28;20037;-63
2023/06/18 04:03:27;;;;;;;22.88;14.32;;;;;;;-144.47;100.00;52703.16;4990175;28;20465;-65
2023/06/18 04:05:53;;;;;;;24.90;12.98;;;;;;;-144.47;100.00;52675.34;4990053;28;20058;-66
2023/06/18 04:08:19;;;;;;;18.52;12.40;;;;;;;-144.47;100.00;52699.19;4990300;28;20496;-67
2023/06/18 04:10:46;;;;;;;17.80;12.07;;;;;;;-144.47;100.00;52661.44;4990359;28;20423;-66
2023/06/18 04:13:14;;;;;;;19.98;11.65;;;;;;;-144.47;100.00;52677.34;4990216;28;20026;-68
2023/06/18 04:15:40;;;;;;;17.58;10.93;;;;;;;-144.47;100.00;52699.19;4989961;28;20073;-64
2023/06/18 04:18:06;;;;;;;25.33;12.45;;;;;;;-144.47;100.00;52661.44;4990581;28;20093;-67
2023/06/18 04:20:31;;;;;;;17.77;11.90;;;;;;;-144.47;100.00;52685.28;4989792;28;20057;-64
2023/06/18 04:22:56;;;;;;;19.73;11.38;;;;;;;-144.47;100.00;52667.41;4989746;28;20068;-68
2023/06/18 04:25:22;;;;;;;20.65;10.82;;;;;;;-144.47;99.00;52641.59;4989740;28;20046;-62
2023/06/18 04:27:47;;;;;;;22.02;11.15;;;;;;;-144.47;98.70;52689.25;4989886;28;20029;-67
2023/06/18 04:30:13;;;;;;;20.00;11.20;;;;;;;-144.47;97.51;52665.44;4990177;28;20041;-66
2023/06/18 04:32:38;;;;;;;16.42;11.27;;;;;;;-144.47;96.39;52673.38;5004841;28;20023;-63
2023/06/18 04:35:04;;;;;;;20.73;10.55;;;;;;;-144.47;95.25;52659.47;4989647;28;20018;-64
2023/06/18 04:37:30;;;;;;;15.65;10.07;;;;;;;-144.47;94.79;52665.44;4989990;28;20580;-65
2023/06/18 04:39:56;;;;;;;15.07;8.57;;;;;;;-144.47;93.99;52677.34;4989789;28;20032;-67
2023/06/18 04:42:21;;;;;;;20.48;10.52;;;;;;;-144.47;93.48;52651.53;4989597;28;20026;-66
2023/06/18 04:44:47;;;;;;;20.33;10.30;;;;;;;-144.47;92.81;52665.44;4989659;28;20149;-66
2023/06/18 04:47:12;;;;;;;14.90;9.35;;;;;;;-144.47;91.98;52655.50;4990096;28;20026;-65
2023/06/18 04:49:44;;;;;;;14.43;9.00;;;;;;;-144.47;91.67;52669.41;4989155;28;20149;-65
2023/06/18 04:52:10;;;;;;;17.02;8.98;;;;;;;-144.47;91.25;52665.44;5002078;23;20030;-70
2023/06/18 04:54:36;;;;;;;19.75;10.07;;;;;;;-144.47;90.98;52673.38;5026241;28;20041;-68
2023/06/18 04:57:01;;;;;;;16.75;10.43;;;;;;;-144.47;90.40;52673.38;5029473;28;20040;-69
2023/06/18 04:59:27;;;;;;;15.38;9.85;;;;;;;-144.47;90.25;52651.53;5033369;28;20104;-70
2023/06/18 05:01:53;;;;;;;16.05;8.77;;;;;;;-144.47;90.06;52657.47;5033150;28;20391;-69
2023/06/18 05:04:18;;;;;;;29.90;8.70;;;;;;;-144.47;89.18;52671.38;5032698;28;20424;-71
2023/06/18 05:06:44;;;;;;;16.15;10.05;;;;;;;-144.47;88.66;52663.44;5032663;28;20021;-65
2023/06/18 05:09:10;;;;;;;13.73;8.82;;;;;;;-144.47;88.63;52669.41;5032869;28;20040;-67
2023/06/18 05:11:35;;;;;;;16.75;8.88;;;;;;;-144.47;88.14;52669.41;5033010;28;20244;-69
2023/06/18 05:14:01;;;;;;;17.13;9.93;;;;;;;-144.47;87.88;52637.63;5032964;28;20037;-69
2023/06/18 05:16:26;;;;;;;17.52;9.25;;;;;;;-144.47;87.51;52665.44;5032621;28;20028;-69
2023/06/18 05:18:52;;;;;;;14.98;8.70;;;;;;;-144.47;86.92;52677.34;5033195;28;20033;-69
2023/06/18 05:21:18;;;;;;;13.57;8.68;;;;;;;-144.47;86.77;52677.34;5014981;28;20075;-72
2023/06/18 05:23:43;;;;;;;14.85;9.20;;;;;;;-144.47;86.65;52685.28;5031212;28;20112;-68
2023/06/18 05:26:09;;;;;;;17.08;9.05;;;;;;;-144.47;86.00;52647.56;5031078;28;20071;-69
2023/06/18 05:28:34;;;;;;;15.35;9.00;;;;;;;-144.47;85.80;52647.56;5032560;28;20018;-72
2023/06/18 05:30:59;;;;;;;12.80;8.52;;;;;;;-144.47;85.70;52677.34;5032681;28;20402;-70
2023/06/18 05:33:25;;;;;;;21.38;9.32;;;;;;;-144.47;85.25;52643.56;5032605;28;20584;-71
2023/06/18 05:35:50;;;;;;;16.67;9.13;;;;;;;-144.47;85.02;52647.56;5031216;28;20018;-73
2023/06/18 05:38:15;;;;;;;14.45;9.23;;;;;;;-144.47;84.61;52631.66;5032722;28;20101;-71
2023/06/18 05:40:41;;;;;;;16.50;10.07;;;;;;;-144.47;83.72;52663.44;5033218;28;20394;-69
2023/06/18 05:43:06;;;;;;;21.23;9.07;;;;;;;-144.47;84.01;52675.34;5033056;28;20620;-70
2023/06/18 05:45:31;;;;;;;14.23;8.98;;;;;;;-144.47;83.54;52659.47;5032000;28;20398;-73
2023/06/18 05:47:57;;;;;;;15.18;8.75;;;;;;;-144.47;83.71;52649.53;5032331;28;20498;-70
2023/06/18 05:50:22;;;;;;;13.63;9.07;;;;;;;-144.47;83.37;52673.38;5032228;28;20120;-68
2023/06/18 05:52:48;;;;;;;15.48;8.80;;;;;;;-144.47;83.10;52673.38;5031542;28;20025;-71
2023/06/18 05:55:13;;;;;;;14.05;8.95;;;;;;;-144.47;82.74;52673.38;5031694;28;20569;-71
2023/06/18 05:57:39;;;;;;;16.77;8.95;;;;;;;-144.47;82.45;52657.47;5032307;28;20014;-72
2023/06/18 06:00:04;;;;;;;18.38;9.68;;;;;;;-144.47;82.06;52661.44;5032198;28;20159;-71
2023/06/18 06:02:30;;;;;;;14.20;9.93;;;;;;;-144.47;81.53;52653.50;5032466;28;20029;-71
2023/06/18 06:04:55;;;;;;;18.20;10.18;;;;;;;-144.47;81.15;52645.56;5032139;28;20028;-71
2023/06/18 06:07:21;;;;;;;15.05;9.70;;;;;;;-144.47;81.05;52649.53;5032584;28;20022;-67
2023/06/18 06:09:46;;;;;;;12.48;8.95;;;;;;;-144.47;80.80;52667.41;5029123;28;20030;-71
2023/06/18 06:12:12;;;;;;;16.77;8.52;;;;;;;-144.47;80.68;52653.50;5026699;28;20084;-72
2023/06/18 06:14:37;;;;;;;16.58;8.35;;;;;;;-144.47;80.21;52649.53;5030975;28;20068;-70
2023/06/18 06:17:03;;;;;;;19.95;9.45;;;;;;;-144.47;79.82;52679.31;5029840;28;20014;-72
2023/06/18 06:19:29;;;;;;;16.10;8.65;;;;;;;-144.47;79.21;52647.56;5031551;28;20041;-71
2023/06/18 06:21:54;;;;;;;16.95;9.02;;;;;;;-144.47;79.16;52639.59;5032018;28;20052;-74
2023/06/18 06:24:20;;;;;;;16.17;9.02;;;;;;;-144.47;79.25;52647.56;5031342;28;20036;-71
2023/06/18 06:26:45;;;;;;;15.70;9.23;;;;;;;-144.47;79.09;52657.47;5031485;28;20032;-71
2023/06/18 06:29:11;;;;;;;16.38;9.18;;;;;;;-144.47;79.02;52663.44;5031485;28;20040;-69
2023/06/18 06:31:36;;;;;;;15.13;8.02;;;;;;;-144.47;78.69;52639.59;5031642;28;20154;-67
2023/06/18 06:34:02;;;;;;;14.75;9.70;;;;;;;-144.47;78.79;52621.72;5031628;28;20022;-71
2023/06/18 06:36:27;;;;;;;15.30;7.85;;;;;;;-144.47;78.84;52643.56;5030692;28;20032;-71
2023/06/18 06:38:53;;;;;;;13.27;8.32;;;;;;;-144.47;78.55;52657.47;5031642;28;20075;-71
2023/06/18 06:41:18;;;;;;;15.25;8.52;;;;;;;-144.47;78.02;52643.56;5031550;28;20176;-71
2023/06/18 06:43:43;;;;;;;16.77;8.77;;;;;;;-144.47;77.51;52651.53;5031465;28;20026;-73
2023/06/18 06:46:09;;;;;;;12.68;8.70;;;;;;;-144.47;76.84;52641.59;5031092;28;20483;-70
2023/06/18 06:48:34;;;;;;;15.77;8.93;;;;;;;-144.47;75.61;52635.63;5030156;28;20026;-71
2023/06/18 06:51:00;;;;;;;15.05;9.02;;;;;;;-144.47;75.67;52657.47;5029355;28;20026;-73
2023/06/18 06:53:26;;;;;;;13.48;8.15;;;;;;;-144.47;75.06;52643.56;5028265;28;20052;-71
2023/06/18 06:55:51;;;;;;;14.95;8.15;;;;;;;-144.47;75.14;52639.59;5027055;28;20040;-72
2023/06/18 06:58:16;;;;;;;14.38;8.52;;;;;;;-144.47;74.67;52665.44;5029424;28;20036;-72
2023/06/18 07:00:42;;;;;;;14.95;8.60;;;;;;;-144.47;74.33;52659.47;5030191;28;20025;-70
2023/06/18 07:03:08;;;;;;;15.93;9.13;;;;;;;-144.47;74.07;52647.56;5030008;28;20025;-73
2023/06/18 07:05:34;;;;;;;14.52;7.97;;;;;;;-144.47;74.06;52649.53;5028742;28;20036;-71
2023/06/18 07:07:59;;;;;;;18.63;7.15;;;;;;;-144.47;73.85;52657.47;5029253;28;20037;-70
2023/06/18 07:10:25;;;;;;;17.10;7.97;;;;;;;-144.47;73.10;52671.38;5030226;28;20083;-72
2023/06/18 07:12:50;;;;;;;17.90;9.05;;;;;;;-144.47;72.41;52649.53;5031071;28;20491;-73
2023/06/18 07:15:16;;;;;;;15.00;8.32;;;;;;;-144.47;71.99;52665.44;5030811;28;20525;-69
2023/06/18 07:17:41;;;;;;;18.85;8.23;;;;;;;-144.47;71.68;52667.41;5030831;28;20391;-74
2023/06/18 07:20:07;;;;;;;14.00;7.63;;;;;;;-144.47;71.13;52641.59;5030726;28;20033;-72
2023/06/18 07:22:33;;;;;;;11.65;7.88;;;;;;;-144.47;70.11;52653.50;5030534;28;20022;-75
2023/06/18 07:24:58;;;;;;;11.68;7.53;;;;;;;-144.47;69.90;52673.38;5030303;28;20053;-69
2023/06/18 07:27:24;;;;;;;12.38;8.07;;;;;;;-144.47;69.55;52677.34;5031072;28;20029;-74
2023/06/18 07:29:50;;;;;;;14.55;7.40;;;;;;;-144.47;68.03;52647.56;5031246;28;20061;-73
2023/06/18 07:32:16;;;;;;;17.25;8.38;;;;;;;-144.47;67.23;52651.53;5031230;28;20075;-74
2023/06/18 07:34:41;;;;;;;14.98;7.78;;;;;;;-144.47;66.87;52665.44;5030359;28;20025;-73
2023/06/18 07:37:07;;;;;;;11.50;7.80;;;;;;;-144.47;66.58;52657.47;5030321;28;20025;-74
2023/06/18 07:39:32;;;;;;;14.07;7.78;;;;;;;-144.47;66.47;52649.53;5030021;28;20083;-71
2023/06/18 07:41:58;;;;;;;13.57;7.75;;;;;;;-144.47;65.81;52661.44;5030465;28;20021;-71
2023/06/18 07:44:23;;;;;;;11.90;8.20;;;;;;;-144.47;65.67;52669.41;5029920;28;20025;-73
2023/06/18 07:46:50;;;;;;;10.95;6.43;;;;;;;-144.47;65.57;52685.28;5030268;28;20489;-70
2023/06/18 07:49:16;;;;;;;12.02;7.40;;;;;;;-144.47;64.67;52667.41;5028773;28;20457;-74
2023/06/18 07:51:43;;;;;;;11.63;6.85;;;;;;;-144.47;63.70;52639.59;5028818;28;20173;-75
2023/06/18 07:54:08;;;;;;;12.85;6.65;;;;;;;-144.47;63.28;52665.44;5030144;28;20025;-72
2023/06/18 07:56:34;;;;;;;13.27;7.43;;;;;;;-144.47;62.14;52665.44;5029908;28;20028;-73
2023/06/18 07:58:59;;;;;;;14.85;6.78;;;;;;;-144.47;62.01;52645.56;5029638;28;20112;-74
2023/06/18 08:01:25;;;;;;;13.40;7.40;;;;;;;-144.47;62.04;52671.38;5030142;28;20025;-73
2023/06/18 08:03:50;;;;;;;10.57;6.80;;;;;;;-144.47;61.69;52673.38;5029237;28;20029;-74
2023/06/18 08:06:16;;;;;;;11.50;7.00;;;;;;;-144.47;61.29;52669.41;5029871;28;20063;-74
2023/06/18 08:08:41;;;;;;;19.60;7.43;;;;;;;-144.47;61.32;52663.44;5029606;28;20522;-74
2023/06/18 08:11:07;;;;;;;13.43;7.80;;;;;;;-144.47;60.22;52639.59;5030356;28;20040;-72
2023/06/18 08:13:32;;;;;;;10.50;6.95;;;;;;;-144.47;58.90;52649.53;5029497;28;20144;-75
2023/06/18 08:15:59;;;;;;;12.98;7.85;;;;;;;-144.47;59.02;52667.41;5029994;28;20025;-73
2023/06/18 08:18:25;;;;;;;12.02;7.47;;;;;;;-144.47;59.95;52659.47;5028251;28;20018;-72
2023/06/18 08:20:50;;;;;;;16.00;8.10;;;;;;;-144.47;59.83;52657.47;5029459;28;20087;-74
2023/06/18 08:23:15;;;;;;;14.60;7.82;;;;;;;-144.47;59.54;52655.50;5029203;28;20025;-74
2023/06/18 08:25:41;;;;;;;12.45;7.80;;;;;;;-144.47;59.22;52659.47;5029306;28;20391;-74
2023/06/18 08:28:06;;;;;;;16.70;7.90;;;;;;;-144.47;59.56;52679.31;5030233;28;20029;-70
2023/06/18 08:30:32;;;;;;;14.30;7.65;;;;;;;-144.47;59.07;52697.19;5029458;28;20501;-71
2023/06/18 08:32:58;;;;;;;11.27;7.25;;;;;;;-144.47;59.35;52695.22;5032654;28;20025;-72
2023/06/18 08:35:23;;;;;;;11.85;8.27;;;;;;;-144.47;58.71;52689.25;5035822;28;20029;-69
2023/06/18 08:37:48;;;;;;;14.23;7.32;;;;;;;-144.47;58.60;52685.28;5035210;28;20116;-73
2023/06/18 08:40:14;;;;;;;11.93;8.05;;;;;;;-144.47;58.25;52673.38;5036182;28;20029;-72
2023/06/18 08:42:40;;;;;;;12.10;7.75;;;;;;;-144.47;58.55;52667.41;5036207;28;20021;-72
2023/06/18 08:45:07;;;;;;;13.75;7.82;;;;;;;-144.47;58.49;52661.44;5036072;28;20029;-70
2023/06/18 08:47:33;;;;;;;12.90;7.38;;;;;;;-144.47;57.88;52677.34;5035793;28;20029;-72
2023/06/18 08:50:01;;;;;;;13.48;7.53;;;;;;;-144.47;56.98;52691.25;5034135;28;20033;-74
2023/06/18 08:52:31;;;;;;;10.05;6.95;;;;;;;-144.47;56.37;52667.41;5029944;28;20172;-68
2023/06/18 08:55:02;;;;;;;12.80;7.35;;;;;;;-144.47;56.42;52689.25;5036478;28;20132;-72
2023/06/18 08:58:05;;;;;;;14.20;8.30;;;;;;;-144.47;55.92;52661.44;5035921;28;20021;-71
2023/06/18 09:00:31;;;;;;;16.08;6.70;;;;;;;-144.47;55.53;52679.31;5035840;28;20027;-73
2023/06/18 09:02:57;;;;;;;13.88;7.18;;;;;;;-144.47;55.10;52687.28;5035920;28;20028;-73
2023/06/18 09:05:25;;;;;;;11.88;7.47;;;;;;;-144.47;53.78;52687.28;5036929;28;20029;-69
2023/06/18 09:07:51;;;;;;;13.27;7.35;;;;;;;-144.47;52.13;52661.44;5036094;28;20025;-74
2023/06/18 09:10:17;;;;;;;11.30;6.90;;;;;;;-144.47;51.14;52673.38;5035629;28;20040;-73
2023/06/18 09:12:43;;;;;;;13.25;6.75;;;;;;;-144.47;50.28;52667.41;5035865;28;20025;-70
2023/06/18 09:15:09;;;;;;;8.80;5.93;;;;;;;-144.47;49.92;52681.31;5035312;28;20029;-74
2023/06/18 09:17:36;;;;;;;9.02;6.20;;;;;;;-144.47;50.17;52671.38;5036322;28;20052;-73
2023/06/18 09:20:02;;;;;;;13.50;6.60;;;;;;;-144.47;51.91;52669.41;5035835;28;20028;-75
2023/06/18 09:22:28;;;;;;;10.55;6.50;;;;;;;-144.47;50.93;52671.38;5034653;28;20029;-73
2023/06/18 09:24:57;;;;;;;12.15;5.70;;;;;;;-144.47;49.50;52677.34;5035098;28;20395;-70
2023/06/18 09:27:33;;;;;;;10.75;6.03;;;;;;;-144.47;49.55;52691.25;5035417;28;20044;-71
2023/06/18 09:29:58;;;;;;;12.35;5.85;;;;;;;-144.47;49.70;52687.28;5035700;28;20083;-73
2023/06/18 09:32:23;;;;;;;10.93;6.10;;;;;;;-144.47;49.53;52701.19;5036644;28;20021;-74
2023/06/18 09:34:49;;;;;;;14.77;6.63;;;;;;;-144.47;48.81;52673.38;5035487;28;20475;-73
2023/06/18 09:37:16;;;;;;;13.77;6.57;;;;;;;-144.47;48.71;52689.25;5035194;28;20563;-69
2023/06/18 09:39:42;;;;;;;10.65;5.68;;;;;;;-144.47;48.60;52703.16;5034839;28;20029;-74
2023/06/18 09:42:09;;;;;;;13.10;6.18;;;;;;;-144.47;47.99;52697.19;5036694;28;20040;-74
2023/06/18 09:44:35;;;;;;;10.98;5.72;;;;;;;-144.47;47.69;52665.44;5031341;28;20025;-70
2023/06/18 09:47:03;;;;;;;16.17;5.93;;;;;;;-144.47;47.32;52683.31;5032548;28;20025;-72
2023/06/18 09:49:29;;;;;;;8.20;5.10;;;;;;;-144.47;46.60;52687.28;5030522;28;20060;-75
2023/06/18 09:51:54;;;;;;;10.50;5.50;;;;;;;-144.47;46.50;52685.28;5032462;28;20041;-72
2023/06/18 09:54:23;;;;;;;13.02;6.32;;;;;;;-144.47;47.52;52697.19;5027145;28;20398;-73
2023/06/18 09:57:00;;;;;;;9.75;5.47;;;;;;;-144.47;46.80;52717.06;5032263;28;20079;-73
2023/06/18 09:59:26;;;;;;;10.27;5.90;;;;;;;-144.47;46.40;52673.38;5031552;28;20075;-73
2023/06/18 10:01:52;;;;;;;14.05;6.65;;;;;;;-144.47;45.41;52703.16;5031986;28;20022;-73
2023/06/18 10:04:18;;;;;;;8.90;5.43;;;;;;;-144.47;43.78;52693.22;5030156;28;20028;-73
2023/06/18 10:07:01;;;;;;;7.70;5.35;;;;;;;-144.47;43.64;52721.03;5031623;28;20032;-71
2023/06/18 10:09:35;;;;;;;12.13;5.93;;;;;;;-144.47;44.66;52697.19;5032122;28;20060;-73
2023/06/18 10:12:02;;;;;;;17.33;5.78;;;;;;;-144.47;45.60;52685.28;5031746;28;20025;-71
2023/06/18 10:14:28;;;;;;;10.55;5.88;;;;;;;-144.47;45.60;52695.22;5031448;28;20036;-75
2023/06/18 10:17:20;;;;;;;8.82;5.32;;;;;;;-144.47;42.45;52723.03;5031410;28;20249;-74
2023/06/18 10:20:03;;;;;;;9.82;5.50;;;;;;;-144.47;42.77;52719.06;5031675;28;20032;-71
2023/06/18 10:22:33;;;;;;;13.30;4.93;;;;;;;-144.47;41.97;52723.03;5032005;28;20022;-74
2023/06/18 10:25:05;;;;;;;7.88;4.75;;;;;;;-144.47;41.88;52703.16;5032071;28;20056;-74
2023/06/18 10:27:32;;;;;;;10.52;5.22;;;;;;;-144.47;41.16;52732.94;5031982;28;20024;-73
2023/06/18 10:29:58;;;;;;;9.70;5.15;;;;;;;-144.47;40.75;52713.09;5031250;28;20483;-72
2023/06/18 10:32:24;;;;;;;10.57;5.22;;;;;;;-144.47;41.77;52715.06;5032017;28;20025;-74
2023/06/18 10:34:54;;;;;;;10.40;5.40;;;;;;;-144.47;41.63;52715.06;5031473;28;20021;-74
2023/06/18 10:37:20;;;;;;;8.32;4.70;;;;;;;-144.47;41.28;52699.19;5031463;28;20083;-74
2023/06/18 10:39:47;;;;;;;9.82;5.25;;;;;;;-144.47;40.55;52695.22;5031867;28;20030;-73
2023/06/18 10:42:15;;;;;;;7.88;5.10;;;;;;;-144.47;39.94;52707.13;5010428;28;20053;-74
2023/06/18 10:44:57;;;;;;;9.65;4.90;;;;;;;-144.47;39.56;52725.00;5031475;28;20031;-74
2023/06/18 10:47:31;;;;;;;6.45;4.05;;;;;;;-144.47;39.12;52717.06;5031575;28;20048;-75
2023/06/18 10:50:02;;;;;;;9.25;4.93;;;;;;;-144.47;38.84;52732.94;5030629;28;20033;-74
2023/06/18 10:55:20;;;;;;;10.02;5.70;;;;;;;-144.47;39.74;52699.19;5007577;28;20065;-72
2023/06/18 10:58:03;;;;;;;7.15;4.53;;;;;;;-144.47;40.07;52719.06;4997624;28;20030;-72
2023/06/18 11:00:35;;;;;;;11.35;5.40;;;;;;;-144.47;39.90;52723.03;5009439;28;20034;-72
2023/06/18 11:03:04;;;;;;;10.38;5.60;;;;;;;-144.47;39.86;52709.13;5009696;28;20025;-72
2023/06/18 11:05:33;;;;;;;12.27;5.28;;;;;;;-144.47;39.83;52721.03;5007132;28;20032;-72